createdAt,value
2023-03-06T00:00:40.239Z,2.83
2023-03-06T00:03:07.191Z,2.83
2023-03-06T00:05:33.904Z,2.81
2023-03-06T00:08:00.673Z,2.79
2023-03-06T00:10:30.192Z,2.78
2023-03-06T00:12:59.481Z,2.75
2023-03-06T00:15:26.962Z,2.70
2023-03-06T00:17:54.294Z,2.67
2023-03-06T00:20:21.166Z,2.66
2023-03-06T00:22:48.732Z,2.64
2023-03-06T00:25:17.582Z,2.63
2023-03-06T00:27:46.244Z,2.60
2023-03-06T00:30:15.178Z,2.59
2023-03-06T00:32:42.342Z,2.58
2023-03-06T00:35:09.926Z,2.57
2023-03-06T00:37:36.623Z,2.55
2023-03-06T00:40:05.123Z,2.55
2023-03-06T00:42:31.717Z,2.54
2023-03-06T00:44:59.689Z,2.53
2023-03-06T00:47:26.362Z,2.51
2023-03-06T00:49:53.888Z,2.50
2023-03-06T00:52:20.901Z,2.49
2023-03-06T00:54:47.831Z,2.50
2023-03-06T00:57:14.460Z,2.49
2023-03-06T00:59:41.167Z,2.50
2023-03-06T01:02:09.826Z,2.50
2023-03-06T01:04:36.536Z,2.51
2023-03-06T01:07:03.434Z,2.49
2023-03-06T01:09:30.028Z,2.49
2023-03-06T01:11:56.865Z,2.49
2023-03-06T01:14:24.162Z,2.50
2023-03-06T01:16:51.174Z,2.50
2023-03-06T01:19:19.276Z,2.50
2023-03-06T01:21:46.374Z,2.49
2023-03-06T01:24:13.038Z,2.50
2023-03-06T01:26:39.720Z,2.50
2023-03-06T01:29:06.466Z,2.52
2023-03-06T01:31:33.591Z,2.52
2023-03-06T01:34:01.265Z,2.52
2023-03-06T01:36:29.820Z,2.53
2023-03-06T01:38:57.237Z,2.52
2023-03-06T01:41:24.068Z,2.52
2023-03-06T01:43:51.053Z,2.53
2023-03-06T01:46:33.550Z,2.53
2023-03-06T01:49:04.593Z,2.56
2023-03-06T01:51:35.653Z,2.57
2023-03-06T01:54:06.740Z,2.58
2023-03-06T01:56:33.714Z,2.58
2023-03-06T01:59:00.960Z,2.58
2023-03-06T02:01:28.968Z,2.57
2023-03-06T02:03:56.031Z,2.56
2023-03-06T02:06:22.626Z,2.55
2023-03-06T02:08:52.592Z,2.55
2023-03-06T02:11:21.678Z,2.55
2023-03-06T02:13:49.635Z,2.54
2023-03-06T02:16:17.652Z,2.54
2023-03-06T02:18:45.664Z,2.53
2023-03-06T02:21:19.507Z,2.54
2023-03-06T02:23:56.282Z,2.55
2023-03-06T02:26:26.838Z,2.56
2023-03-06T02:28:53.660Z,2.55
2023-03-06T02:31:23.548Z,2.55
2023-03-06T02:34:05.208Z,2.55
2023-03-06T02:36:33.873Z,2.55
2023-03-06T02:39:01.421Z,2.55
2023-03-06T02:41:29.504Z,2.57
2023-03-06T02:43:56.080Z,2.58
2023-03-06T02:46:22.798Z,2.58
2023-03-06T02:48:49.767Z,2.59
2023-03-06T02:51:16.543Z,2.60
2023-03-06T02:53:43.094Z,2.62
2023-03-06T02:56:09.690Z,2.63
2023-03-06T02:58:37.820Z,2.64
2023-03-06T03:01:05.218Z,2.66
2023-03-06T03:03:31.916Z,2.67
2023-03-06T03:05:58.512Z,2.67
2023-03-06T03:08:25.118Z,2.67
2023-03-06T03:10:51.669Z,2.67
2023-03-06T03:13:18.311Z,2.67
2023-03-06T03:15:46.329Z,2.67
2023-03-06T03:18:12.897Z,2.68
2023-03-06T03:20:42.269Z,2.68
2023-03-06T03:23:08.855Z,2.67
2023-03-06T03:25:35.417Z,2.68
2023-03-06T03:28:02.088Z,2.70
2023-03-06T03:30:28.652Z,2.70
2023-03-06T03:32:56.631Z,2.71
2023-03-06T03:35:23.247Z,2.70
2023-03-06T03:37:50.164Z,2.70
2023-03-06T03:40:17.091Z,2.72
2023-03-06T03:42:43.901Z,2.70
2023-03-06T03:45:11.398Z,2.69
2023-03-06T03:47:38.164Z,2.66
2023-03-06T03:50:07.643Z,2.60
2023-03-06T03:52:34.296Z,2.57
2023-03-06T03:55:01.035Z,2.54
2023-03-06T03:57:27.607Z,2.52
2023-03-06T03:59:55.175Z,2.48
2023-03-06T04:02:21.946Z,2.46
2023-03-06T04:04:48.937Z,2.42
2023-03-06T04:09:57.423Z,2.40
2023-03-06T04:12:24.809Z,2.36
2023-03-06T04:14:51.879Z,2.34
2023-03-06T04:17:18.497Z,2.32
2023-03-06T04:19:45.066Z,2.32
2023-03-06T04:22:11.812Z,2.28
2023-03-06T04:24:39.803Z,2.26
2023-03-06T04:27:06.416Z,2.26
2023-03-06T04:29:33.038Z,2.25
2023-03-06T04:31:59.646Z,2.26
2023-03-06T04:34:26.261Z,2.26
2023-03-06T04:36:53.094Z,2.25
2023-03-06T04:39:19.900Z,2.25
2023-03-06T04:41:47.909Z,2.24
2023-03-06T04:44:14.915Z,2.22
2023-03-06T04:46:41.639Z,2.21
2023-03-06T04:49:08.347Z,2.19
2023-03-06T04:51:35.173Z,2.17
2023-03-06T04:54:01.804Z,2.15
2023-03-06T04:56:28.558Z,2.14
2023-03-06T04:58:56.529Z,2.12
2023-03-06T05:01:23.170Z,2.10
2023-03-06T05:03:49.789Z,2.11
2023-03-06T05:06:16.442Z,2.11
2023-03-06T05:08:43.061Z,2.10
2023-03-06T05:11:09.713Z,2.11
2023-03-06T05:13:36.319Z,2.11
2023-03-06T05:16:06.008Z,2.13
2023-03-06T05:18:33.721Z,2.10
2023-03-06T05:21:00.704Z,2.11
2023-03-06T05:23:27.961Z,2.08
2023-03-06T05:25:54.695Z,2.06
2023-03-06T05:28:21.692Z,2.05
2023-03-06T05:30:49.012Z,2.02
2023-03-06T05:33:17.110Z,2.02
2023-03-06T05:35:45.835Z,1.99
2023-03-06T05:38:12.643Z,1.98
2023-03-06T05:40:40.833Z,1.98
2023-03-06T05:43:07.929Z,1.97
2023-03-06T05:45:35.018Z,1.97
2023-03-06T05:48:01.755Z,1.96
2023-03-06T05:50:29.967Z,1.96
2023-03-06T05:52:56.616Z,1.96
2023-03-06T05:55:23.302Z,1.97
2023-03-06T05:57:50.144Z,1.96
2023-03-06T06:00:17.981Z,1.96
2023-03-06T06:02:45.459Z,1.96
2023-03-06T06:05:13.303Z,1.96
2023-03-06T06:07:41.474Z,1.97
2023-03-06T06:10:10.818Z,1.95
2023-03-06T06:12:37.767Z,1.93
2023-03-06T06:15:05.598Z,1.94
2023-03-06T06:17:32.310Z,1.93
2023-03-06T06:19:59.116Z,1.94
2023-03-06T06:22:25.841Z,1.95
2023-03-06T06:24:53.743Z,1.94
2023-03-06T06:27:20.469Z,1.94
2023-03-06T06:29:50.508Z,1.94
2023-03-06T06:32:17.200Z,1.96
2023-03-06T06:34:43.839Z,1.97
2023-03-06T06:37:10.517Z,2.01
2023-03-06T06:39:37.204Z,2.03
2023-03-06T06:42:28.211Z,2.02
2023-03-06T06:44:52.249Z,2.02
2023-03-06T06:47:23.128Z,2.04
2023-03-06T06:49:51.249Z,2.06
2023-03-06T06:52:18.143Z,2.08
2023-03-06T06:54:44.893Z,2.10
2023-03-06T06:57:13.115Z,2.12
2023-03-06T06:59:40.000Z,2.08
2023-03-06T07:02:06.721Z,2.06
2023-03-06T07:04:33.402Z,2.06
2023-03-06T07:07:00.126Z,2.08
2023-03-06T07:09:26.707Z,2.12
2023-03-06T07:11:53.368Z,2.14
2023-03-06T07:14:21.475Z,2.17
2023-03-06T07:16:48.098Z,2.20
2023-03-06T07:19:14.876Z,2.23
2023-03-06T07:21:41.554Z,2.24
2023-03-06T07:24:08.382Z,2.27
2023-03-06T07:26:35.104Z,2.28
2023-03-06T07:29:01.930Z,2.33
2023-03-06T07:31:30.259Z,2.38
2023-03-06T07:33:56.974Z,2.43
2023-03-06T07:36:23.903Z,2.46
2023-03-06T07:38:50.603Z,2.51
2023-03-06T07:41:17.273Z,2.56
2023-03-06T07:43:45.666Z,2.61
2023-03-06T07:46:13.278Z,2.67
2023-03-06T07:48:42.242Z,2.72
2023-03-06T07:51:14.306Z,2.75
2023-03-06T07:53:41.243Z,2.78
2023-03-06T07:56:08.724Z,2.79
2023-03-06T07:58:35.947Z,2.83
2023-03-06T08:01:07.239Z,2.86
2023-03-06T08:03:34.274Z,2.90
2023-03-06T08:06:11.095Z,2.95
2023-03-06T08:08:38.963Z,3.00
2023-03-06T08:11:06.032Z,3.03
2023-03-06T08:13:33.261Z,3.06
2023-03-06T08:15:59.931Z,3.10
2023-03-06T08:18:26.856Z,3.16
2023-03-06T08:21:01.728Z,3.22
2023-03-06T08:23:29.765Z,3.27
2023-03-06T08:25:57.419Z,3.30
2023-03-06T08:28:24.100Z,3.34
2023-03-06T08:30:50.703Z,3.39
2023-03-06T08:33:17.513Z,3.44
2023-03-06T08:35:44.180Z,3.50
2023-03-06T08:38:10.806Z,3.54
2023-03-06T08:40:38.817Z,3.56
2023-03-06T08:43:05.422Z,3.57
2023-03-06T08:45:32.024Z,3.58
2023-03-06T08:47:58.641Z,3.60
2023-03-06T08:50:25.340Z,3.60
2023-03-06T08:52:51.897Z,3.59
2023-03-06T08:55:18.731Z,3.61
2023-03-06T08:57:47.045Z,3.59
2023-03-06T09:00:15.046Z,3.57
2023-03-06T09:02:41.708Z,3.57
2023-03-06T09:05:09.120Z,3.59
2023-03-06T09:07:35.802Z,3.61
2023-03-06T09:10:02.784Z,3.64
2023-03-06T09:12:30.820Z,3.67
2023-03-06T09:15:05.012Z,3.69
2023-03-06T09:17:31.696Z,3.70
2023-03-06T09:19:58.297Z,3.71
2023-03-06T09:22:25.155Z,3.73
2023-03-06T09:24:51.789Z,3.72
2023-03-06T09:27:18.588Z,3.71
2023-03-06T09:29:45.262Z,3.73
2023-03-06T09:32:13.298Z,3.73
2023-03-06T09:34:40.154Z,3.76
2023-03-06T09:37:06.719Z,3.78
2023-03-06T09:39:33.380Z,3.80
2023-03-06T09:42:00.110Z,3.83
2023-03-06T09:44:29.314Z,3.83
2023-03-06T09:47:10.741Z,3.85
2023-03-06T09:49:47.086Z,3.86
2023-03-06T09:52:35.234Z,3.85
2023-03-06T09:55:11.844Z,3.84
2023-03-06T09:57:42.845Z,3.84
2023-03-06T10:00:15.257Z,3.85
2023-03-06T10:02:45.935Z,3.85
2023-03-06T10:05:19.589Z,3.85
2023-03-06T10:07:50.451Z,3.83
2023-03-06T10:10:20.288Z,3.86
2023-03-06T10:12:53.649Z,3.86
2023-03-06T10:15:22.361Z,3.88
2023-03-06T10:17:49.174Z,3.92
2023-03-06T10:20:19.784Z,3.94
2023-03-06T10:23:03.076Z,3.95
2023-03-06T10:25:36.713Z,3.95
2023-03-06T10:28:14.245Z,3.94
2023-03-06T10:30:47.033Z,3.91
2023-03-06T10:33:22.358Z,3.88
2023-03-06T10:35:52.981Z,3.88
2023-03-06T10:38:21.885Z,3.88
2023-03-06T10:40:59.360Z,3.91
2023-03-06T10:43:26.317Z,3.93
2023-03-06T10:45:53.797Z,3.96
2023-03-06T10:48:23.885Z,3.94
2023-03-06T10:50:52.772Z,3.97
2023-03-06T10:53:22.913Z,4.00
2023-03-06T10:55:57.987Z,4.06
2023-03-06T10:58:27.559Z,4.08
2023-03-06T11:01:02.788Z,4.10
2023-03-06T11:03:29.731Z,4.16
2023-03-06T11:06:01.928Z,4.20
2023-03-06T11:08:28.868Z,4.24
2023-03-06T11:10:57.991Z,4.26
2023-03-06T11:13:26.710Z,4.29
2023-03-06T11:16:01.155Z,4.35
2023-03-06T11:18:30.427Z,4.42
2023-03-06T11:20:58.546Z,4.49
2023-03-06T11:23:35.176Z,4.57
2023-03-06T11:26:09.053Z,4.58
2023-03-06T11:28:40.217Z,4.58
2023-03-06T11:31:11.696Z,4.58
2023-03-06T11:33:42.823Z,4.63
2023-03-06T11:36:15.657Z,4.63
2023-03-06T11:38:46.499Z,4.69
2023-03-06T11:41:19.035Z,4.74
2023-03-06T11:43:55.082Z,4.79
2023-03-06T11:46:26.356Z,4.84
2023-03-06T11:48:58.159Z,4.92
2023-03-06T11:51:29.062Z,4.98
2023-03-06T11:53:58.593Z,5.04
2023-03-06T11:56:35.517Z,5.08
2023-03-06T11:59:12.936Z,5.15
2023-03-06T12:01:47.265Z,5.22
2023-03-06T12:04:34.035Z,5.30
2023-03-06T12:07:17.616Z,5.36
2023-03-06T12:09:45.694Z,5.41
2023-03-06T12:12:34.072Z,5.45
2023-03-06T12:15:35.358Z,5.50
2023-03-06T12:18:18.140Z,5.56
2023-03-06T12:20:55.756Z,5.59
2023-03-06T12:23:36.959Z,5.65
2023-03-06T12:26:17.520Z,5.75
2023-03-06T12:29:00.618Z,5.82
2023-03-06T12:31:43.511Z,5.88
2023-03-06T12:34:26.090Z,5.87
2023-03-06T12:37:01.234Z,5.84
2023-03-06T12:39:43.282Z,5.84
2023-03-06T12:42:25.961Z,5.87
2023-03-06T12:45:21.106Z,5.87
2023-03-06T12:47:52.250Z,5.92
2023-03-06T12:50:23.440Z,5.99
2023-03-06T12:52:51.805Z,6.08
2023-03-06T12:55:24.345Z,6.02
2023-03-06T12:57:52.271Z,6.06
2023-03-06T13:01:04.724Z,6.15
2023-03-06T13:03:44.938Z,6.26
2023-03-06T13:06:51.465Z,6.35
2023-03-06T13:09:23.444Z,6.41
2023-03-06T13:12:18.301Z,6.47
2023-03-06T13:14:54.742Z,6.53
2023-03-06T13:17:34.070Z,6.59
2023-03-06T13:20:28.051Z,6.66
2023-03-06T13:22:54.641Z,6.69
2023-03-06T13:25:48.564Z,6.72
2023-03-06T13:28:38.916Z,6.76
2023-03-06T13:31:10.595Z,6.76
2023-03-06T13:33:59.386Z,6.67
2023-03-06T13:36:31.668Z,6.51
2023-03-06T13:39:08.809Z,6.37
2023-03-06T13:41:52.964Z,6.34
2023-03-06T13:44:42.158Z,6.39
2023-03-06T13:47:39.701Z,6.42
2023-03-06T13:50:35.334Z,6.53
2023-03-06T13:53:35.328Z,6.70
2023-03-06T13:56:26.869Z,6.79
2023-03-06T13:59:14.089Z,6.82
2023-03-06T14:01:53.566Z,6.83
2023-03-06T14:04:33.719Z,6.87
2023-03-06T14:07:20.071Z,6.96
2023-03-06T14:09:53.345Z,7.02
2023-03-06T14:12:23.848Z,7.09
2023-03-06T14:14:54.633Z,7.17
2023-03-06T14:17:29.121Z,7.21
2023-03-06T14:19:58.294Z,7.12
2023-03-06T14:22:25.274Z,7.06
2023-03-06T14:24:56.346Z,7.02
2023-03-06T14:27:39.008Z,7.05
2023-03-06T14:30:08.265Z,7.06
2023-03-06T14:32:38.296Z,6.94
2023-03-06T14:35:05.800Z,6.79
2023-03-06T14:37:36.505Z,6.63
2023-03-06T14:40:09.480Z,6.58
2023-03-06T14:42:36.106Z,6.59
2023-03-06T14:45:14.363Z,6.61
2023-03-06T14:47:43.028Z,6.64
2023-03-06T14:50:23.913Z,6.62
2023-03-06T14:52:54.147Z,6.58
2023-03-06T14:55:23.728Z,6.58
2023-03-06T14:57:56.600Z,6.55
2023-03-06T15:00:26.815Z,6.51
2023-03-06T15:02:55.793Z,6.49
2023-03-06T15:05:27.819Z,6.45
2023-03-06T15:07:57.902Z,6.43
2023-03-06T15:10:26.543Z,6.42
2023-03-06T15:12:53.239Z,6.36
2023-03-06T15:15:29.357Z,6.34
2023-03-06T15:17:57.517Z,6.22
2023-03-06T15:20:42.770Z,6.14
2023-03-06T15:23:21.890Z,6.09
2023-03-06T15:25:54.488Z,6.05
2023-03-06T15:28:31.964Z,6.03
2023-03-06T15:31:21.054Z,6.00
2023-03-06T15:34:23.786Z,5.97
2023-03-06T15:36:53.350Z,5.92
2023-03-06T15:39:32.075Z,5.84
2023-03-06T15:41:59.878Z,5.74
2023-03-06T15:44:27.172Z,5.64
2023-03-06T15:46:59.213Z,5.56
2023-03-06T15:49:30.780Z,5.46
2023-03-06T15:51:57.432Z,5.37
2023-03-06T15:54:24.105Z,5.29
2023-03-06T15:56:50.817Z,5.20
2023-03-06T15:59:23.067Z,5.14
2023-03-06T16:01:50.444Z,5.06
2023-03-06T16:04:17.460Z,4.98
2023-03-06T16:06:45.921Z,4.92
2023-03-06T16:09:13.429Z,4.88
2023-03-06T16:11:44.134Z,4.83
2023-03-06T16:14:21.777Z,4.81
2023-03-06T16:16:48.819Z,4.79
2023-03-06T16:19:26.006Z,4.76
2023-03-06T16:21:55.256Z,4.74
2023-03-06T16:24:22.002Z,4.71
2023-03-06T16:26:50.478Z,4.67
2023-03-06T16:29:19.413Z,4.63
2023-03-06T16:31:46.267Z,4.56
2023-03-06T16:34:13.164Z,4.50
2023-03-06T16:36:40.535Z,4.44
2023-03-06T16:39:13.512Z,4.37
2023-03-06T16:41:40.205Z,4.30
2023-03-06T16:44:07.082Z,4.24
2023-03-06T16:46:37.230Z,4.15
2023-03-06T16:49:03.817Z,4.08
2023-03-06T16:51:30.356Z,3.99
2023-03-06T16:53:57.061Z,3.91
2023-03-06T16:56:25.256Z,3.84
2023-03-06T16:58:51.971Z,3.74
2023-03-06T17:01:19.487Z,3.65
2023-03-06T17:03:47.081Z,3.57
2023-03-06T17:06:15.160Z,3.49
2023-03-06T17:08:41.892Z,3.41
2023-03-06T17:11:08.801Z,3.32
2023-03-06T17:13:37.186Z,3.24
2023-03-06T17:16:04.093Z,3.18
2023-03-06T17:18:31.415Z,3.10
2023-03-06T17:20:58.373Z,3.01
2023-03-06T17:23:26.725Z,2.93
2023-03-06T17:26:02.256Z,2.84
2023-03-06T17:28:28.844Z,2.76
2023-03-06T17:30:56.882Z,2.68
2023-03-06T17:33:23.598Z,2.61
2023-03-06T17:35:50.263Z,2.54
2023-03-06T17:38:17.012Z,2.48
2023-03-06T17:40:43.650Z,2.42
2023-03-06T17:43:10.229Z,2.36
2023-03-06T17:45:36.877Z,2.28
2023-03-06T17:48:05.202Z,2.23
2023-03-06T17:50:31.976Z,2.16
2023-03-06T17:52:58.616Z,2.11
2023-03-06T17:55:25.269Z,2.05
2023-03-06T17:57:51.965Z,1.99
2023-03-06T18:00:19.597Z,1.94
2023-03-06T18:02:46.293Z,1.89
2023-03-06T18:05:14.535Z,1.83
2023-03-06T18:07:41.262Z,1.79
2023-03-06T18:10:08.350Z,1.74
2023-03-06T18:12:35.052Z,1.70
2023-03-06T18:15:02.418Z,1.66
2023-03-06T18:17:29.230Z,1.62
2023-03-06T18:19:56.065Z,1.58
2023-03-06T18:22:24.427Z,1.54
2023-03-06T18:24:51.120Z,1.49
2023-03-06T18:27:17.893Z,1.45
2023-03-06T18:29:44.571Z,1.42
2023-03-06T18:32:11.252Z,1.38
2023-03-06T18:34:37.903Z,1.35
2023-03-06T18:37:04.646Z,1.30
2023-03-06T18:39:32.731Z,1.28
2023-03-06T18:41:59.411Z,1.24
2023-03-06T18:44:26.189Z,1.20
2023-03-06T18:46:52.824Z,1.18
2023-03-06T18:49:19.556Z,1.15
2023-03-06T18:51:46.449Z,1.11
2023-03-06T18:54:13.261Z,1.08
2023-03-06T18:56:41.356Z,1.04
2023-03-06T18:59:08.093Z,1.02
2023-03-06T19:01:35.119Z,0.99
2023-03-06T19:04:03.191Z,0.95
2023-03-06T19:06:30.316Z,0.93
2023-03-06T19:08:57.490Z,0.89
2023-03-06T19:11:25.560Z,0.87
2023-03-06T19:13:53.862Z,0.84
2023-03-06T19:16:22.721Z,0.80
2023-03-06T19:18:49.732Z,0.76
2023-03-06T19:21:18.785Z,0.74
2023-03-06T19:23:45.590Z,0.70
2023-03-06T19:26:12.772Z,0.68
2023-03-06T19:28:41.110Z,0.66
2023-03-06T19:31:10.852Z,0.62
2023-03-06T19:33:37.756Z,0.60
2023-03-06T19:36:05.379Z,0.59
2023-03-06T19:38:32.153Z,0.55
2023-03-06T19:40:59.061Z,0.54
2023-03-06T19:43:25.957Z,0.53
2023-03-06T19:45:52.705Z,0.51
2023-03-06T19:48:22.729Z,0.49
2023-03-06T19:50:49.672Z,0.46
2023-03-06T19:53:16.431Z,0.43
2023-03-06T19:55:43.562Z,0.43
2023-03-06T19:58:10.382Z,0.41
2023-03-06T20:00:37.654Z,0.39
2023-03-06T20:03:04.546Z,0.38
2023-03-06T20:05:33.134Z,0.37
2023-03-06T20:07:59.940Z,0.34
2023-03-06T20:10:26.835Z,0.34
2023-03-06T20:12:53.825Z,0.30
2023-03-06T20:15:20.536Z,0.29
2023-03-06T20:17:47.243Z,0.29
2023-03-06T20:20:14.103Z,0.26
2023-03-06T20:22:42.278Z,0.26
2023-03-06T20:25:09.257Z,0.25
2023-03-06T20:27:36.007Z,0.24
2023-03-06T20:30:02.942Z,0.23
2023-03-06T20:32:29.787Z,0.23
2023-03-06T20:34:56.468Z,0.23
2023-03-06T20:37:23.229Z,0.22
2023-03-06T20:39:51.836Z,0.20
2023-03-06T20:42:18.781Z,0.19
2023-03-06T20:44:45.448Z,0.18
2023-03-06T20:47:12.205Z,0.16
2023-03-06T20:49:38.989Z,0.15
2023-03-06T20:52:05.951Z,0.13
2023-03-06T20:54:32.672Z,0.11
2023-03-06T20:57:01.071Z,0.09
2023-03-06T20:59:27.839Z,0.07
2023-03-06T21:01:54.594Z,0.05
2023-03-06T21:04:21.473Z,0.05
2023-03-06T21:06:48.100Z,0.02
2023-03-06T21:09:16.318Z,0.00
2023-03-06T21:11:43.041Z,-0.03
2023-03-06T21:14:11.033Z,-0.04
2023-03-06T21:16:37.758Z,-0.06
2023-03-06T21:19:04.627Z,-0.07
2023-03-06T21:21:33.104Z,-0.08
2023-03-06T21:24:01.070Z,-0.08
2023-03-06T21:26:30.159Z,-0.09
2023-03-06T21:28:57.592Z,-0.10
2023-03-06T21:31:26.534Z,-0.10
2023-03-06T21:33:53.118Z,-0.11
2023-03-06T21:36:20.429Z,-0.12
2023-03-06T21:38:48.571Z,-0.14
2023-03-06T21:41:16.784Z,-0.15
2023-03-06T21:43:44.023Z,-0.15
2023-03-06T21:46:11.091Z,-0.15
2023-03-06T21:48:39.327Z,-0.17
2023-03-06T21:51:08.376Z,-0.19
2023-03-06T21:53:35.268Z,-0.23
2023-03-06T21:56:02.304Z,-0.25
2023-03-06T21:58:29.472Z,-0.28
2023-03-06T22:00:56.216Z,-0.30
2023-03-06T22:03:22.920Z,-0.31
2023-03-06T22:05:50.993Z,-0.34
2023-03-06T22:08:18.307Z,-0.37
2023-03-06T22:10:46.476Z,-0.39
2023-03-06T22:13:14.262Z,-0.40
2023-03-06T22:15:49.304Z,-0.42
2023-03-06T22:18:15.860Z,-0.44
2023-03-06T22:20:42.479Z,-0.47
2023-03-06T22:23:10.420Z,-0.50
2023-03-06T22:25:37.180Z,-0.53
2023-03-06T22:28:03.822Z,-0.55
2023-03-06T22:30:30.469Z,-0.57
2023-03-06T22:32:57.083Z,-0.59
2023-03-06T22:35:23.731Z,-0.62
2023-03-06T22:37:50.367Z,-0.64
2023-03-06T22:40:18.575Z,-0.65
2023-03-06T22:42:45.209Z,-0.67
2023-03-06T22:45:12.080Z,-0.70
2023-03-06T22:47:39.227Z,-0.71
2023-03-06T22:50:06.998Z,-0.72
2023-03-06T22:52:33.665Z,-0.74
2023-03-06T22:55:00.232Z,-0.75
2023-03-06T22:57:28.351Z,-0.77
2023-03-06T22:59:54.901Z,-0.81
2023-03-06T23:02:21.540Z,-0.85
2023-03-06T23:04:49.055Z,-0.87
2023-03-06T23:07:15.764Z,-0.89
2023-03-06T23:09:42.361Z,-0.94
2023-03-06T23:12:09.194Z,-0.96
2023-03-06T23:14:37.368Z,-0.98
2023-03-06T23:17:04.076Z,-1.01
2023-03-06T23:19:31.202Z,-1.03
2023-03-06T23:21:57.793Z,-1.05
2023-03-06T23:24:24.539Z,-1.07
2023-03-06T23:26:51.151Z,-1.06
2023-03-06T23:29:17.880Z,-1.07
2023-03-06T23:31:45.849Z,-1.09
2023-03-06T23:34:12.518Z,-1.10
2023-03-06T23:36:39.148Z,-1.11
2023-03-06T23:39:05.739Z,-1.14
2023-03-06T23:41:32.346Z,-1.15
2023-03-06T23:43:58.911Z,-1.19
2023-03-06T23:46:25.745Z,-1.21
2023-03-06T23:48:53.933Z,-1.22
2023-03-06T23:51:22.214Z,-1.24
2023-03-06T23:53:54.355Z,-1.26
2023-03-06T23:56:21.008Z,-1.27
2023-03-06T23:58:47.667Z,-1.27
